sensor_id;sensor_type;location;lat;lon;timestamp;P1;durP1;ratioP1;P2;durP2;ratioP2
22429;SDS011;11382;48.086;11.632;2022-07-11T00:02:26;2.10;;;1.50;;
22429;SDS011;11382;48.086;11.632;2022-07-11T00:04:54;2.08;;;1.50;;
22429;SDS011;11382;48.086;11.632;2022-07-11T00:07:22;2.40;;;1.35;;
22429;SDS011;11382;48.086;11.632;2022-07-11T00:09:50;2.75;;;1.52;;
22429;SDS011;11382;48.086;11.632;2022-07-11T00:12:18;2.60;;;1.35;;
22429;SDS011;11382;48.086;11.632;2022-07-11T00:14:47;3.42;;;1.40;;
22429;SDS011;11382;48.086;11.632;2022-07-11T00:17:15;2.22;;;1.25;;
22429;SDS011;11382;48.086;11.632;2022-07-11T00:19:45;2.88;;;1.60;;
22429;SDS011;11382;48.086;11.632;2022-07-11T00:22:13;2.63;;;1.42;;
22429;SDS011;11382;48.086;11.632;2022-07-11T00:24:41;2.90;;;1.80;;
22429;SDS011;11382;48.086;11.632;2022-07-11T00:27:09;5.65;;;1.27;;
22429;SDS011;11382;48.086;11.632;2022-07-11T00:29:37;2.17;;;1.40;;
22429;SDS011;11382;48.086;11.632;2022-07-11T00:32:05;3.28;;;1.30;;
22429;SDS011;11382;48.086;11.632;2022-07-11T00:34:34;1.50;;;1.10;;
22429;SDS011;11382;48.086;11.632;2022-07-11T00:37:03;2.97;;;1.35;;
22429;SDS011;11382;48.086;11.632;2022-07-11T00:39:31;2.70;;;1.40;;
22429;SDS011;11382;48.086;11.632;2022-07-11T00:41:59;3.70;;;1.42;;
22429;SDS011;11382;48.086;11.632;2022-07-11T00:44:27;2.42;;;1.45;;
22429;SDS011;11382;48.086;11.632;2022-07-11T00:46:55;4.03;;;1.58;;
22429;SDS011;11382;48.086;11.632;2022-07-11T00:49:23;2.90;;;1.55;;
22429;SDS011;11382;48.086;11.632;2022-07-11T00:51:51;2.35;;;1.23;;
22429;SDS011;11382;48.086;11.632;2022-07-11T00:54:20;3.80;;;1.73;;
22429;SDS011;11382;48.086;11.632;2022-07-11T00:56:49;2.42;;;1.67;;
22429;SDS011;11382;48.086;11.632;2022-07-11T00:59:18;2.63;;;1.50;;
22429;SDS011;11382;48.086;11.632;2022-07-11T01:01:46;2.45;;;1.30;;
22429;SDS011;11382;48.086;11.632;2022-07-11T01:04:14;2.95;;;1.70;;
22429;SDS011;11382;48.086;11.632;2022-07-11T01:06:42;2.45;;;1.20;;
22429;SDS011;11382;48.086;11.632;2022-07-11T01:09:10;3.75;;;1.50;;
22429;SDS011;11382;48.086;11.632;2022-07-11T01:11:39;2.80;;;1.50;;
22429;SDS011;11382;48.086;11.632;2022-07-11T01:14:08;4.68;;;1.63;;
22429;SDS011;11382;48.086;11.632;2022-07-11T01:16:36;2.58;;;1.60;;
22429;SDS011;11382;48.086;11.632;2022-07-11T01:19:04;2.83;;;1.20;;
22429;SDS011;11382;48.086;11.632;2022-07-11T01:21:32;1.60;;;1.20;;
22429;SDS011;11382;48.086;11.632;2022-07-11T01:24:06;2.90;;;1.40;;
22429;SDS011;11382;48.086;11.632;2022-07-11T01:26:35;1.90;;;1.30;;
22429;SDS011;11382;48.086;11.632;2022-07-11T01:29:04;2.05;;;1.25;;
22429;SDS011;11382;48.086;11.632;2022-07-11T01:31:33;3.67;;;1.20;;
22429;SDS011;11382;48.086;11.632;2022-07-11T01:34:01;2.88;;;1.17;;
22429;SDS011;11382;48.086;11.632;2022-07-11T01:36:29;2.55;;;1.60;;
22429;SDS011;11382;48.086;11.632;2022-07-11T01:38:57;2.47;;;1.20;;
22429;SDS011;11382;48.086;11.632;2022-07-11T01:41:27;1.27;;;1.17;;
22429;SDS011;11382;48.086;11.632;2022-07-11T01:43:54;2.00;;;1.30;;
22429;SDS011;11382;48.086;11.632;2022-07-11T01:46:22;2.85;;;1.45;;
22429;SDS011;11382;48.086;11.632;2022-07-11T01:48:50;1.63;;;1.10;;
22429;SDS011;11382;48.086;11.632;2022-07-11T01:51:18;2.85;;;1.35;;
22429;SDS011;11382;48.086;11.632;2022-07-11T01:53:46;1.52;;;1.17;;
22429;SDS011;11382;48.086;11.632;2022-07-11T01:56:14;2.75;;;1.45;;
22429;SDS011;11382;48.086;11.632;2022-07-11T01:58:48;2.22;;;1.20;;
22429;SDS011;11382;48.086;11.632;2022-07-11T02:01:16;1.73;;;1.40;;
22429;SDS011;11382;48.086;11.632;2022-07-11T02:03:44;2.85;;;1.30;;
22429;SDS011;11382;48.086;11.632;2022-07-11T02:06:13;3.35;;;1.10;;
22429;SDS011;11382;48.086;11.632;2022-07-11T02:08:41;1.50;;;1.30;;
22429;SDS011;11382;48.086;11.632;2022-07-11T02:11:08;3.30;;;1.30;;
22429;SDS011;11382;48.086;11.632;2022-07-11T02:13:36;1.60;;;1.00;;
22429;SDS011;11382;48.086;11.632;2022-07-11T02:16:06;1.08;;;0.90;;
22429;SDS011;11382;48.086;11.632;2022-07-11T02:18:34;3.10;;;1.23;;
22429;SDS011;11382;48.086;11.632;2022-07-11T02:21:02;1.48;;;1.20;;
22429;SDS011;11382;48.086;11.632;2022-07-11T02:23:30;2.03;;;1.00;;
22429;SDS011;11382;48.086;11.632;2022-07-11T02:25:58;2.42;;;1.00;;
22429;SDS011;11382;48.086;11.632;2022-07-11T02:28:26;5.57;;;1.10;;
22429;SDS011;11382;48.086;11.632;2022-07-11T02:30:54;1.23;;;1.00;;
22429;SDS011;11382;48.086;11.632;2022-07-11T02:33:24;2.78;;;1.20;;
22429;SDS011;11382;48.086;11.632;2022-07-11T02:35:52;1.77;;;1.20;;
22429;SDS011;11382;48.086;11.632;2022-07-11T02:38:19;4.18;;;1.20;;
22429;SDS011;11382;48.086;11.632;2022-07-11T02:40:47;1.92;;;1.10;;
22429;SDS011;11382;48.086;11.632;2022-07-11T02:43:15;1.90;;;1.20;;
22429;SDS011;11382;48.086;11.632;2022-07-11T02:45:43;2.80;;;1.20;;
22429;SDS011;11382;48.086;11.632;2022-07-11T02:48:11;2.15;;;1.08;;
22429;SDS011;11382;48.086;11.632;2022-07-11T02:50:40;3.45;;;1.20;;
22429;SDS011;11382;48.086;11.632;2022-07-11T02:53:08;2.03;;;1.10;;
22429;SDS011;11382;48.086;11.632;2022-07-11T02:55:36;1.60;;;1.25;;
22429;SDS011;11382;48.086;11.632;2022-07-11T02:58:04;3.08;;;1.17;;
22429;SDS011;11382;48.086;11.632;2022-07-11T03:00:32;1.55;;;0.90;;
22429;SDS011;11382;48.086;11.632;2022-07-11T03:03:00;2.88;;;1.23;;
22429;SDS011;11382;48.086;11.632;2022-07-11T03:05:29;1.73;;;1.08;;
22429;SDS011;11382;48.086;11.632;2022-07-11T03:07:58;2.00;;;1.17;;
22429;SDS011;11382;48.086;11.632;2022-07-11T03:10:26;2.45;;;1.10;;
22429;SDS011;11382;48.086;11.632;2022-07-11T03:12:54;1.20;;;0.95;;
22429;SDS011;11382;48.086;11.632;2022-07-11T03:15:22;2.70;;;1.58;;
22429;SDS011;11382;48.086;11.632;2022-07-11T03:17:50;2.80;;;1.30;;
22429;SDS011;11382;48.086;11.632;2022-07-11T03:20:18;1.20;;;1.10;;
22429;SDS011;11382;48.086;11.632;2022-07-11T03:22:46;1.42;;;1.00;;
22429;SDS011;11382;48.086;11.632;2022-07-11T03:25:15;2.20;;;1.17;;
22429;SDS011;11382;48.086;11.632;2022-07-11T03:27:43;2.80;;;1.00;;
22429;SDS011;11382;48.086;11.632;2022-07-11T03:30:11;2.38;;;1.10;;
22429;SDS011;11382;48.086;11.632;2022-07-11T03:32:41;5.45;;;1.58;;
22429;SDS011;11382;48.086;11.632;2022-07-11T03:35:09;1.77;;;1.05;;
22429;SDS011;11382;48.086;11.632;2022-07-11T03:37:54;1.70;;;0.95;;
22429;SDS011;11382;48.086;11.632;2022-07-11T03:40:24;3.10;;;1.08;;
22429;SDS011;11382;48.086;11.632;2022-07-11T03:42:51;2.75;;;1.10;;
22429;SDS011;11382;48.086;11.632;2022-07-11T03:45:19;2.63;;;1.27;;
22429;SDS011;11382;48.086;11.632;2022-07-11T03:47:47;1.27;;;0.85;;
22429;SDS011;11382;48.086;11.632;2022-07-11T03:50:15;1.52;;;1.20;;
22429;SDS011;11382;48.086;11.632;2022-07-11T03:52:44;1.92;;;1.20;;
22429;SDS011;11382;48.086;11.632;2022-07-11T03:55:12;2.60;;;1.25;;
22429;SDS011;11382;48.086;11.632;2022-07-11T03:57:41;2.92;;;0.90;;
22429;SDS011;11382;48.086;11.632;2022-07-11T04:00:09;2.85;;;1.27;;
22429;SDS011;11382;48.086;11.632;2022-07-11T04:02:38;2.47;;;1.23;;
22429;SDS011;11382;48.086;11.632;2022-07-11T04:05:06;4.05;;;1.33;;
22429;SDS011;11382;48.086;11.632;2022-07-11T04:07:35;3.47;;;1.20;;
22429;SDS011;11382;48.086;11.632;2022-07-11T04:10:03;2.55;;;1.13;;
22429;SDS011;11382;48.086;11.632;2022-07-11T04:12:32;2.45;;;1.20;;
22429;SDS011;11382;48.086;11.632;2022-07-11T04:15:01;4.03;;;1.30;;
22429;SDS011;11382;48.086;11.632;2022-07-11T04:17:30;2.05;;;1.10;;
22429;SDS011;11382;48.086;11.632;2022-07-11T04:19:58;2.55;;;1.10;;
22429;SDS011;11382;48.086;11.632;2022-07-11T04:22:26;3.38;;;1.00;;
22429;SDS011;11382;48.086;11.632;2022-07-11T04:24:54;2.53;;;1.10;;
22429;SDS011;11382;48.086;11.632;2022-07-11T04:27:22;3.20;;;1.20;;
22429;SDS011;11382;48.086;11.632;2022-07-11T04:29:56;1.83;;;1.10;;
22429;SDS011;11382;48.086;11.632;2022-07-11T04:32:25;2.13;;;0.98;;
22429;SDS011;11382;48.086;11.632;2022-07-11T04:34:53;1.63;;;0.90;;
22429;SDS011;11382;48.086;11.632;2022-07-11T04:37:21;2.13;;;1.10;;
22429;SDS011;11382;48.086;11.632;2022-07-11T04:39:49;2.30;;;1.08;;
22429;SDS011;11382;48.086;11.632;2022-07-11T04:42:17;3.30;;;1.50;;
22429;SDS011;11382;48.086;11.632;2022-07-11T04:44:44;1.70;;;1.00;;
22429;SDS011;11382;48.086;11.632;2022-07-11T04:47:12;2.63;;;1.13;;
22429;SDS011;11382;48.086;11.632;2022-07-11T04:49:42;3.15;;;1.20;;
22429;SDS011;11382;48.086;11.632;2022-07-11T04:52:13;2.45;;;1.10;;
22429;SDS011;11382;48.086;11.632;2022-07-11T04:54:40;3.70;;;1.23;;
22429;SDS011;11382;48.086;11.632;2022-07-11T04:57:08;3.67;;;0.90;;
22429;SDS011;11382;48.086;11.632;2022-07-11T04:59:37;2.20;;;1.30;;
22429;SDS011;11382;48.086;11.632;2022-07-11T05:02:06;1.85;;;1.38;;
22429;SDS011;11382;48.086;11.632;2022-07-11T05:04:35;2.65;;;1.00;;
22429;SDS011;11382;48.086;11.632;2022-07-11T05:07:05;3.90;;;1.10;;
22429;SDS011;11382;48.086;11.632;2022-07-11T05:09:32;2.25;;;1.10;;
22429;SDS011;11382;48.086;11.632;2022-07-11T05:12:00;2.95;;;1.27;;
22429;SDS011;11382;48.086;11.632;2022-07-11T05:14:28;6.22;;;1.00;;
22429;SDS011;11382;48.086;11.632;2022-07-11T05:16:56;2.28;;;1.15;;
22429;SDS011;11382;48.086;11.632;2022-07-11T05:19:24;3.00;;;1.00;;
22429;SDS011;11382;48.086;11.632;2022-07-11T05:21:52;1.92;;;1.05;;
22429;SDS011;11382;48.086;11.632;2022-07-11T05:24:21;2.60;;;1.10;;
22429;SDS011;11382;48.086;11.632;2022-07-11T05:26:49;1.42;;;1.00;;
22429;SDS011;11382;48.086;11.632;2022-07-11T05:29:17;1.88;;;1.13;;
22429;SDS011;11382;48.086;11.632;2022-07-11T05:31:45;1.13;;;0.80;;
22429;SDS011;11382;48.086;11.632;2022-07-11T05:34:17;2.53;;;0.90;;
22429;SDS011;11382;48.086;11.632;2022-07-11T05:36:45;1.90;;;0.80;;
22429;SDS011;11382;48.086;11.632;2022-07-11T05:39:14;5.05;;;1.40;;
22429;SDS011;11382;48.086;11.632;2022-07-11T05:41:43;1.48;;;0.82;;
22429;SDS011;11382;48.086;11.632;2022-07-11T05:44:11;3.35;;;1.10;;
22429;SDS011;11382;48.086;11.632;2022-07-11T05:46:39;3.13;;;2.10;;
22429;SDS011;11382;48.086;11.632;2022-07-11T05:49:08;2.33;;;0.95;;
22429;SDS011;11382;48.086;11.632;2022-07-11T05:51:36;2.25;;;1.33;;
22429;SDS011;11382;48.086;11.632;2022-07-11T05:54:04;3.22;;;1.10;;
22429;SDS011;11382;48.086;11.632;2022-07-11T05:56:32;3.05;;;1.50;;
22429;SDS011;11382;48.086;11.632;2022-07-11T05:59:02;2.20;;;0.95;;
22429;SDS011;11382;48.086;11.632;2022-07-11T06:01:30;4.68;;;1.10;;
22429;SDS011;11382;48.086;11.632;2022-07-11T06:04:02;2.67;;;1.10;;
22429;SDS011;11382;48.086;11.632;2022-07-11T06:06:30;6.07;;;0.90;;
22429;SDS011;11382;48.086;11.632;2022-07-11T06:08:59;2.78;;;1.10;;
22429;SDS011;11382;48.086;11.632;2022-07-11T06:11:27;4.03;;;1.05;;
22429;SDS011;11382;48.086;11.632;2022-07-11T06:13:54;2.63;;;0.95;;
22429;SDS011;11382;48.086;11.632;2022-07-11T06:16:27;2.15;;;1.00;;
22429;SDS011;11382;48.086;11.632;2022-07-11T06:18:56;3.22;;;1.10;;
22429;SDS011;11382;48.086;11.632;2022-07-11T06:21:24;2.75;;;1.00;;
22429;SDS011;11382;48.086;11.632;2022-07-11T06:23:52;2.75;;;0.98;;
22429;SDS011;11382;48.086;11.632;2022-07-11T06:26:20;2.22;;;0.98;;
22429;SDS011;11382;48.086;11.632;2022-07-11T06:28:48;3.05;;;1.45;;
22429;SDS011;11382;48.086;11.632;2022-07-11T06:31:16;3.53;;;1.08;;
22429;SDS011;11382;48.086;11.632;2022-07-11T06:33:46;3.28;;;1.00;;
22429;SDS011;11382;48.086;11.632;2022-07-11T06:36:22;4.00;;;1.25;;
22429;SDS011;11382;48.086;11.632;2022-07-11T06:38:50;3.83;;;1.15;;
22429;SDS011;11382;48.086;11.632;2022-07-11T06:41:19;2.80;;;1.23;;
22429;SDS011;11382;48.086;11.632;2022-07-11T06:43:47;1.70;;;0.85;;
22429;SDS011;11382;48.086;11.632;2022-07-11T06:46:15;2.55;;;1.10;;
22429;SDS011;11382;48.086;11.632;2022-07-11T06:48:43;2.17;;;1.30;;
22429;SDS011;11382;48.086;11.632;2022-07-11T06:51:13;5.32;;;1.30;;
22429;SDS011;11382;48.086;11.632;2022-07-11T06:53:41;3.80;;;1.20;;
22429;SDS011;11382;48.086;11.632;2022-07-11T06:56:10;2.05;;;0.90;;
22429;SDS011;11382;48.086;11.632;2022-07-11T06:58:38;2.53;;;0.90;;
22429;SDS011;11382;48.086;11.632;2022-07-11T07:01:05;3.13;;;1.10;;
22429;SDS011;11382;48.086;11.632;2022-07-11T07:03:35;1.48;;;0.90;;
22429;SDS011;11382;48.086;11.632;2022-07-11T07:06:03;2.30;;;0.88;;
22429;SDS011;11382;48.086;11.632;2022-07-11T07:08:33;3.03;;;0.80;;
22429;SDS011;11382;48.086;11.632;2022-07-11T07:11:01;1.65;;;0.73;;
22429;SDS011;11382;48.086;11.632;2022-07-11T07:13:34;2.08;;;0.55;;
22429;SDS011;11382;48.086;11.632;2022-07-11T07:16:02;1.45;;;0.70;;
22429;SDS011;11382;48.086;11.632;2022-07-11T07:18:32;2.50;;;0.70;;
22429;SDS011;11382;48.086;11.632;2022-07-11T07:21:01;4.32;;;0.80;;
22429;SDS011;11382;48.086;11.632;2022-07-11T07:23:29;2.40;;;0.75;;
22429;SDS011;11382;48.086;11.632;2022-07-11T07:25:58;2.33;;;0.95;;
22429;SDS011;11382;48.086;11.632;2022-07-11T07:28:26;2.00;;;0.70;;
22429;SDS011;11382;48.086;11.632;2022-07-11T07:30:54;1.45;;;0.57;;
22429;SDS011;11382;48.086;11.632;2022-07-11T07:33:23;1.40;;;0.50;;
22429;SDS011;11382;48.086;11.632;2022-07-11T07:36:09;0.85;;;0.50;;
22429;SDS011;11382;48.086;11.632;2022-07-11T07:38:37;2.15;;;0.80;;
22429;SDS011;11382;48.086;11.632;2022-07-11T07:41:09;1.73;;;0.60;;
22429;SDS011;11382;48.086;11.632;2022-07-11T07:43:37;5.75;;;0.93;;
22429;SDS011;11382;48.086;11.632;2022-07-11T07:46:05;1.35;;;0.57;;
22429;SDS011;11382;48.086;11.632;2022-07-11T07:48:35;1.38;;;0.55;;
22429;SDS011;11382;48.086;11.632;2022-07-11T07:51:04;3.03;;;0.50;;
22429;SDS011;11382;48.086;11.632;2022-07-11T07:53:33;2.33;;;0.70;;
22429;SDS011;11382;48.086;11.632;2022-07-11T07:56:01;0.77;;;0.60;;
22429;SDS011;11382;48.086;11.632;2022-07-11T07:58:30;1.30;;;0.60;;
22429;SDS011;11382;48.086;11.632;2022-07-11T08:00:58;1.90;;;0.70;;
22429;SDS011;11382;48.086;11.632;2022-07-11T08:03:44;1.33;;;0.60;;
22429;SDS011;11382;48.086;11.632;2022-07-11T08:06:11;1.98;;;0.65;;
22429;SDS011;11382;48.086;11.632;2022-07-11T08:08:39;2.10;;;0.85;;
22429;SDS011;11382;48.086;11.632;2022-07-11T08:11:07;1.77;;;0.55;;
22429;SDS011;11382;48.086;11.632;2022-07-11T08:13:57;0.50;;;0.40;;
22429;SDS011;11382;48.086;11.632;2022-07-11T08:16:25;1.67;;;0.80;;
22429;SDS011;11382;48.086;11.632;2022-07-11T08:18:56;2.10;;;0.40;;
22429;SDS011;11382;48.086;11.632;2022-07-11T08:21:25;2.63;;;0.68;;
22429;SDS011;11382;48.086;11.632;2022-07-11T08:23:54;0.85;;;0.40;;
22429;SDS011;11382;48.086;11.632;2022-07-11T08:26:22;1.20;;;0.50;;
22429;SDS011;11382;48.086;11.632;2022-07-11T08:28:58;3.25;;;0.68;;
22429;SDS011;11382;48.086;11.632;2022-07-11T08:31:27;1.63;;;0.60;;
22429;SDS011;11382;48.086;11.632;2022-07-11T08:33:55;1.05;;;0.50;;
22429;SDS011;11382;48.086;11.632;2022-07-11T08:36:25;0.90;;;0.40;;
22429;SDS011;11382;48.086;11.632;2022-07-11T08:38:54;0.55;;;0.10;;
22429;SDS011;11382;48.086;11.632;2022-07-11T08:41:22;0.38;;;0.20;;
22429;SDS011;11382;48.086;11.632;2022-07-11T08:43:50;1.02;;;0.32;;
22429;SDS011;11382;48.086;11.632;2022-07-11T08:46:20;0.28;;;0.20;;
22429;SDS011;11382;48.086;11.632;2022-07-11T08:48:48;0.50;;;0.30;;
22429;SDS011;11382;48.086;11.632;2022-07-11T08:51:18;2.72;;;0.70;;
22429;SDS011;11382;48.086;11.632;2022-07-11T08:53:48;4.03;;;0.88;;
22429;SDS011;11382;48.086;11.632;2022-07-11T08:56:18;0.68;;;0.40;;
22429;SDS011;11382;48.086;11.632;2022-07-11T08:58:48;1.23;;;0.70;;
22429;SDS011;11382;48.086;11.632;2022-07-11T09:01:25;0.75;;;0.70;;
22429;SDS011;11382;48.086;11.632;2022-07-11T09:03:56;3.38;;;0.95;;
22429;SDS011;11382;48.086;11.632;2022-07-11T09:06:24;2.22;;;0.80;;
22429;SDS011;11382;48.086;11.632;2022-07-11T09:08:55;1.45;;;0.73;;
22429;SDS011;11382;48.086;11.632;2022-07-11T09:11:24;0.77;;;0.47;;
22429;SDS011;11382;48.086;11.632;2022-07-11T09:13:53;0.55;;;0.40;;
22429;SDS011;11382;48.086;11.632;2022-07-11T09:16:21;1.08;;;0.30;;
22429;SDS011;11382;48.086;11.632;2022-07-11T09:18:58;1.05;;;0.63;;
22429;SDS011;11382;48.086;11.632;2022-07-11T09:21:27;1.15;;;0.50;;
22429;SDS011;11382;48.086;11.632;2022-07-11T09:24:13;2.22;;;0.85;;
22429;SDS011;11382;48.086;11.632;2022-07-11T09:26:58;2.08;;;0.80;;
22429;SDS011;11382;48.086;11.632;2022-07-11T09:29:26;2.70;;;0.70;;
22429;SDS011;11382;48.086;11.632;2022-07-11T09:31:54;4.90;;;1.10;;
22429;SDS011;11382;48.086;11.632;2022-07-11T09:34:24;2.92;;;0.90;;
22429;SDS011;11382;48.086;11.632;2022-07-11T09:36:55;4.07;;;0.93;;
22429;SDS011;11382;48.086;11.632;2022-07-11T09:39:24;1.75;;;0.90;;
22429;SDS011;11382;48.086;11.632;2022-07-11T09:41:53;2.90;;;1.02;;
22429;SDS011;11382;48.086;11.632;2022-07-11T09:44:23;2.65;;;0.75;;
22429;SDS011;11382;48.086;11.632;2022-07-11T09:46:53;1.05;;;0.85;;
22429;SDS011;11382;48.086;11.632;2022-07-11T09:49:30;4.38;;;0.82;;
22429;SDS011;11382;48.086;11.632;2022-07-11T09:52:06;1.30;;;0.70;;
22429;SDS011;11382;48.086;11.632;2022-07-11T09:54:40;2.80;;;0.75;;
22429;SDS011;11382;48.086;11.632;2022-07-11T09:57:27;1.00;;;0.70;;
22429;SDS011;11382;48.086;11.632;2022-07-11T09:59:56;0.88;;;0.65;;
22429;SDS011;11382;48.086;11.632;2022-07-11T10:02:24;2.35;;;0.60;;
22429;SDS011;11382;48.086;11.632;2022-07-11T10:04:54;1.08;;;0.60;;
22429;SDS011;11382;48.086;11.632;2022-07-11T10:07:22;1.20;;;0.75;;
22429;SDS011;11382;48.086;11.632;2022-07-11T10:09:50;1.83;;;0.80;;
22429;SDS011;11382;48.086;11.632;2022-07-11T10:12:18;1.98;;;0.77;;
22429;SDS011;11382;48.086;11.632;2022-07-11T10:14:47;1.55;;;0.70;;
22429;SDS011;11382;48.086;11.632;2022-07-11T10:17:19;1.00;;;0.70;;
22429;SDS011;11382;48.086;11.632;2022-07-11T10:20:00;3.00;;;0.60;;
22429;SDS011;11382;48.086;11.632;2022-07-11T10:22:36;0.80;;;0.30;;
22429;SDS011;11382;48.086;11.632;2022-07-11T10:25:10;0.75;;;0.30;;
22429;SDS011;11382;48.086;11.632;2022-07-11T10:27:48;0.22;;;0.22;;
22429;SDS011;11382;48.086;11.632;2022-07-11T10:30:39;0.20;;;0.20;;
22429;SDS011;11382;48.086;11.632;2022-07-11T10:33:08;0.45;;;0.40;;
22429;SDS011;11382;48.086;11.632;2022-07-11T10:35:37;1.25;;;0.40;;
22429;SDS011;11382;48.086;11.632;2022-07-11T10:38:07;0.95;;;0.40;;
22429;SDS011;11382;48.086;11.632;2022-07-11T10:40:45;0.70;;;0.40;;
22429;SDS011;11382;48.086;11.632;2022-07-11T10:43:16;0.60;;;0.40;;
22429;SDS011;11382;48.086;11.632;2022-07-11T10:46:03;1.08;;;0.43;;
22429;SDS011;11382;48.086;11.632;2022-07-11T10:48:33;1.67;;;0.65;;
22429;SDS011;11382;48.086;11.632;2022-07-11T10:51:08;0.35;;;0.30;;
22429;SDS011;11382;48.086;11.632;2022-07-11T10:53:44;0.65;;;0.30;;
22429;SDS011;11382;48.086;11.632;2022-07-11T10:56:17;1.13;;;0.30;;
22429;SDS011;11382;48.086;11.632;2022-07-11T10:59:15;0.50;;;0.40;;
22429;SDS011;11382;48.086;11.632;2022-07-11T11:04:47;1.02;;;0.40;;
22429;SDS011;11382;48.086;11.632;2022-07-11T11:07:30;0.80;;;0.60;;
22429;SDS011;11382;48.086;11.632;2022-07-11T11:13:20;1.35;;;0.75;;
22429;SDS011;11382;48.086;11.632;2022-07-11T11:15:50;0.65;;;0.38;;
22429;SDS011;11382;48.086;11.632;2022-07-11T11:18:32;0.88;;;0.50;;
22429;SDS011;11382;48.086;11.632;2022-07-11T11:21:13;0.45;;;0.40;;
22429;SDS011;11382;48.086;11.632;2022-07-11T11:24:01;0.68;;;0.50;;
22429;SDS011;11382;48.086;11.632;2022-07-11T11:26:42;0.95;;;0.45;;
22429;SDS011;11382;48.086;11.632;2022-07-11T11:29:22;0.88;;;0.52;;
22429;SDS011;11382;48.086;11.632;2022-07-11T11:31:52;2.25;;;0.60;;
22429;SDS011;11382;48.086;11.632;2022-07-11T11:34:22;1.38;;;0.40;;
22429;SDS011;11382;48.086;11.632;2022-07-11T11:36:51;0.70;;;0.57;;
22429;SDS011;11382;48.086;11.632;2022-07-11T11:39:28;0.93;;;0.50;;
22429;SDS011;11382;48.086;11.632;2022-07-11T11:42:08;1.13;;;0.50;;
22429;SDS011;11382;48.086;11.632;2022-07-11T11:44:55;1.83;;;0.63;;
22429;SDS011;11382;48.086;11.632;2022-07-11T11:47:28;0.40;;;0.40;;
22429;SDS011;11382;48.086;11.632;2022-07-11T11:49:57;0.90;;;0.47;;
22429;SDS011;11382;48.086;11.632;2022-07-11T11:52:26;0.28;;;0.28;;
22429;SDS011;11382;48.086;11.632;2022-07-11T11:54:57;0.75;;;0.40;;
22429;SDS011;11382;48.086;11.632;2022-07-11T11:57:25;1.05;;;0.43;;
22429;SDS011;11382;48.086;11.632;2022-07-11T11:59:55;0.40;;;0.30;;
22429;SDS011;11382;48.086;11.632;2022-07-11T12:02:24;1.60;;;0.30;;
22429;SDS011;11382;48.086;11.632;2022-07-11T12:04:54;1.13;;;0.40;;
22429;SDS011;11382;48.086;11.632;2022-07-11T12:07:23;1.20;;;0.50;;
22429;SDS011;11382;48.086;11.632;2022-07-11T12:09:52;0.68;;;0.40;;
22429;SDS011;11382;48.086;11.632;2022-07-11T12:12:24;1.05;;;0.50;;
22429;SDS011;11382;48.086;11.632;2022-07-11T12:15:25;1.42;;;0.50;;
22429;SDS011;11382;48.086;11.632;2022-07-11T12:17:56;0.50;;;0.40;;
22429;SDS011;11382;48.086;11.632;2022-07-11T12:20:32;0.40;;;0.40;;
22429;SDS011;11382;48.086;11.632;2022-07-11T12:23:05;0.88;;;0.65;;
22429;SDS011;11382;48.086;11.632;2022-07-11T12:25:40;1.08;;;0.50;;
22429;SDS011;11382;48.086;11.632;2022-07-11T12:28:13;0.95;;;0.45;;
22429;SDS011;11382;48.086;11.632;2022-07-11T12:30:41;1.33;;;0.38;;
22429;SDS011;11382;48.086;11.632;2022-07-11T12:33:10;1.35;;;0.70;;
22429;SDS011;11382;48.086;11.632;2022-07-11T12:35:56;0.98;;;0.77;;
22429;SDS011;11382;48.086;11.632;2022-07-11T12:38:25;1.10;;;0.73;;
22429;SDS011;11382;48.086;11.632;2022-07-11T12:41:13;0.50;;;0.50;;
22429;SDS011;11382;48.086;11.632;2022-07-11T12:43:44;0.75;;;0.50;;
22429;SDS011;11382;48.086;11.632;2022-07-11T12:46:33;1.00;;;0.60;;
22429;SDS011;11382;48.086;11.632;2022-07-11T12:49:02;2.38;;;0.50;;
22429;SDS011;11382;48.086;11.632;2022-07-11T12:51:32;1.65;;;0.60;;
22429;SDS011;11382;48.086;11.632;2022-07-11T12:54:03;0.90;;;0.63;;
22429;SDS011;11382;48.086;11.632;2022-07-11T12:56:33;1.73;;;0.60;;
22429;SDS011;11382;48.086;11.632;2022-07-11T12:59:03;0.82;;;0.50;;
22429;SDS011;11382;48.086;11.632;2022-07-11T13:01:36;1.75;;;0.52;;
22429;SDS011;11382;48.086;11.632;2022-07-11T13:04:31;0.55;;;0.50;;
22429;SDS011;11382;48.086;11.632;2022-07-11T13:10:12;3.05;;;0.77;;
22429;SDS011;11382;48.086;11.632;2022-07-11T13:12:42;1.08;;;0.70;;
22429;SDS011;11382;48.086;11.632;2022-07-11T13:15:12;2.38;;;0.70;;
22429;SDS011;11382;48.086;11.632;2022-07-11T13:17:44;1.52;;;0.60;;
22429;SDS011;11382;48.086;11.632;2022-07-11T13:20:15;1.75;;;0.73;;
22429;SDS011;11382;48.086;11.632;2022-07-11T13:22:45;0.63;;;0.52;;
22429;SDS011;11382;48.086;11.632;2022-07-11T13:25:15;1.90;;;0.60;;
22429;SDS011;11382;48.086;11.632;2022-07-11T13:27:45;0.85;;;0.50;;
22429;SDS011;11382;48.086;11.632;2022-07-11T13:30:17;2.75;;;0.50;;
22429;SDS011;11382;48.086;11.632;2022-07-11T13:32:47;0.65;;;0.50;;
22429;SDS011;11382;48.086;11.632;2022-07-11T13:35:17;0.85;;;0.70;;
22429;SDS011;11382;48.086;11.632;2022-07-11T13:37:46;3.05;;;0.90;;
22429;SDS011;11382;48.086;11.632;2022-07-11T13:40:15;2.25;;;0.82;;
22429;SDS011;11382;48.086;11.632;2022-07-11T13:42:44;1.90;;;0.75;;
22429;SDS011;11382;48.086;11.632;2022-07-11T13:45:17;2.92;;;1.05;;
22429;SDS011;11382;48.086;11.632;2022-07-11T13:47:47;1.13;;;0.85;;
22429;SDS011;11382;48.086;11.632;2022-07-11T13:50:16;0.95;;;0.60;;
22429;SDS011;11382;48.086;11.632;2022-07-11T13:52:44;1.13;;;0.77;;
22429;SDS011;11382;48.086;11.632;2022-07-11T13:55:15;5.22;;;1.20;;
22429;SDS011;11382;48.086;11.632;2022-07-11T13:57:43;1.20;;;0.80;;
22429;SDS011;11382;48.086;11.632;2022-07-11T14:00:12;0.80;;;0.60;;
22429;SDS011;11382;48.086;11.632;2022-07-11T14:02:42;1.15;;;0.90;;
22429;SDS011;11382;48.086;11.632;2022-07-11T14:05:10;1.48;;;0.85;;
22429;SDS011;11382;48.086;11.632;2022-07-11T14:07:38;3.25;;;0.98;;
22429;SDS011;11382;48.086;11.632;2022-07-11T14:10:06;1.52;;;0.40;;
22429;SDS011;11382;48.086;11.632;2022-07-11T14:12:35;0.68;;;0.50;;
22429;SDS011;11382;48.086;11.632;2022-07-11T14:15:03;1.02;;;0.70;;
22429;SDS011;11382;48.086;11.632;2022-07-11T14:17:32;0.50;;;0.50;;
22429;SDS011;11382;48.086;11.632;2022-07-11T14:20:01;1.67;;;0.75;;
22429;SDS011;11382;48.086;11.632;2022-07-11T14:22:30;2.40;;;0.70;;
22429;SDS011;11382;48.086;11.632;2022-07-11T14:24:58;1.85;;;0.63;;
22429;SDS011;11382;48.086;11.632;2022-07-11T14:27:26;1.00;;;0.55;;
22429;SDS011;11382;48.086;11.632;2022-07-11T14:29:54;1.58;;;0.77;;
22429;SDS011;11382;48.086;11.632;2022-07-11T14:32:22;2.80;;;0.70;;
22429;SDS011;11382;48.086;11.632;2022-07-11T14:34:50;0.95;;;0.60;;
22429;SDS011;11382;48.086;11.632;2022-07-11T14:37:19;0.93;;;0.50;;
22429;SDS011;11382;48.086;11.632;2022-07-11T14:39:47;0.90;;;0.50;;
22429;SDS011;11382;48.086;11.632;2022-07-11T14:42:15;1.15;;;0.70;;
22429;SDS011;11382;48.086;11.632;2022-07-11T14:45:03;0.95;;;0.60;;
22429;SDS011;11382;48.086;11.632;2022-07-11T14:47:33;0.60;;;0.60;;
22429;SDS011;11382;48.086;11.632;2022-07-11T14:50:01;2.88;;;0.68;;
22429;SDS011;11382;48.086;11.632;2022-07-11T14:52:30;1.25;;;0.60;;
22429;SDS011;11382;48.086;11.632;2022-07-11T14:54:58;1.20;;;0.70;;
22429;SDS011;11382;48.086;11.632;2022-07-11T14:57:26;0.77;;;0.68;;
22429;SDS011;11382;48.086;11.632;2022-07-11T14:59:54;0.88;;;0.70;;
22429;SDS011;11382;48.086;11.632;2022-07-11T15:02:22;2.47;;;0.73;;